Nashville, Tennessee
Traffic Map
Current Weather Conditions
Nashville, Tennessee
Overcast
Overcast
40°
Feels Like: 34°
Wind Chill: 34° Ceiling: 1700
Heat Index: 40° Visibility: 10mi
Dew Point: 34° Wind: 8mph
Humidity: 79% Direction: 300° (WNW)
Pressure: 30.13in Gusts: 0mph
Raw Report DataKBNA 270753Z 30007KT 10SM OVC017 04/01 A3013 RMK AO2 SLP203 T00440011
Traffic Incident Summary
Active as of:
Severity:
Category:
InformationThere was an issue retrieving the traffic information for this location. Please try a different location or try again shortly.
Advertisements
Track Severe Weather on mobile